Řízení letového provozu České republiky  
Aktualizace dat:  23.09.2014 02:06:21 UTC English version
   METEO Zobrazení stránky:  23.09.2014 02:17:51 UTC  
vysvětlivky
METAR EDDB 230150Z 32011KT 9999 SCT015 BKN028 10/08 Q1015 NOSIG=
METAR EDDC 230150Z 31010KT 9000 BKN008 09/08 Q1015=
METAR EDDE 230150Z 31012KT 9999 BKN043 10/07 Q1018=
METAR EDDF 230150Z 20003KT CAVOK 07/07 Q1021 NOSIG=
METAR EDDM 230150Z 26009KT 9999 FEW030 BKN060 07/06 Q1020 NOSIG=
METAR EDDN 230150Z 29005KT 9999 BKN048 09/07 Q1019=
METAR EDDP 230150Z 31011KT 9999 OVC032 10/08 Q1017 NOSIG=
METAR EDDT 230150Z 32006KT 9999 BKN022 10/07 Q1015=
METAR EDQM 230150Z AUTO 31008KT 270V010 9999NDV UP SCT014/// BKN020/// 07/05 Q1018=
METAR EPBY 230200Z 28012KT 9999 -SHRA SCT007 OVC013CB 11/10 Q1006 =
METAR EPGD 230200Z 34018G28KT 9999 BKN008 FEW030CB 10/09 Q1005 =
METAR EPKK 230200Z 26007KT 9999 SCT017 08/06 Q1010 =
METAR EPKT 230200Z 26009KT 9999 BKN009 08/07 Q1010 =
METAR EPLL 230200Z 26008KT 9999 BKN011 09/08 Q1007 =
METAR EPPO 230200Z 30013KT 9999 BKN011 11/09 Q1009 =
METAR EPRZ 230200Z 27009KT 9999 SCT009 08/08 Q1008 =
METAR EPWA 230200Z 26008KT 9999 SCT008 08/07 Q1006 BECMG BKN009=
METAR EPWR 230200Z 28008KT 9999 -DZ OVC008 11/09 Q1011 =
METAR LHBP 230200Z 29014KT CAVOK 10/07 Q1011 NOSIG=
METAR LHSM NIL
METAR LKCV 230200Z 29014KT 9999 SCT015 BKN019 10/09 Q1013 NOSIG=
METAR LKKB 230200Z 28009KT 9999 BKN026 OVC043 09/07 Q1014=
METAR LKKU NIL
METAR LKKV 230200Z 27006KT 9999 BKN008 OVC014 07/06 Q1016 RMK REG QNH 1009=
METAR LKLN 230200Z AUTO 30006KT 270V330 9999 FEW036 09/07 Q1017=
METAR LKMT 230200Z 25007KT 9999 OVC039 08/07 Q1011 NOSIG RMK REG QNH 1009=
METAR LKNA 230200Z 29011KT 9999 -RA BKN019 BKN060 07/07 Q1013=
METAR LKPD 230200Z 28009KT 9999 FEW009 OVC015 09/08 Q1013=
METAR LKPR 230200Z 28011KT 9999 BKN023 09/06 Q1014 NOSIG RMK REG QNH 1009=
METAR LKTB 230200Z 24005KT 9999 SCT017 BKN027 09/06 Q1013 NOSIG RMK REG QNH 1009=
METAR LKVO NIL
METAR LOWI 230150Z 24003KT 9999 FEW045 SCT080 07/04 Q1020 NOSIG=
METAR LOWL 230150Z 25013KT 9999 FEW008 SCT014 BKN021 09/07 Q1017 NOSIG=
METAR LOWS 230150Z 27006KT 220V340 9999 -SHRA SCT030 BKN040 08/04 Q1020=
METAR LOWW 230150Z 30015KT 9999 -RA FEW021 BKN040 10/07 Q1014 NOSIG=
METAR LZIB 230200Z 30011KT CAVOK 10/06 Q1013=
METAR LZKZ 230200Z 05004KT CAVOK 09/08 Q1008=
METAR LZPP 230200Z AUTO 29007KT 9999 FEW110/// 08/05 Q1012=
METAR LZSL 230200Z VRB01KT 9999 FEW049 08/06 Q1009=
METAR LZTT 230200Z 26004KT 9999 FEW020 BKN056 05/04 Q1008=
METAR LZZI 230200Z 28004KT 250V310 9999 SCT030 OVC039 09/06 Q1011=